Time;durP1;ratioP1;P1;durP2;ratioP2;P2;SDS_P1;SDS_P2;PMS_P1;PMS_P2;Temp;Humidity;BMP_temperature;BMP_pressure;BME280_temperature;BME280_humidity;BME280_pressure;Samples;Min_cycle;Max_cycle;Signal;HPM_P1;HPM_P2
2022/03/29 00:02:13;;;;;;;39.33;23.97;;;8.50;99.90;;;;;;5044311;28;20198;-77
2022/03/29 00:04:40;;;;;;;36.60;22.77;;;8.50;99.90;;;;;;5044517;28;20208;-78
2022/03/29 00:07:07;;;;;;;36.87;22.60;;;8.50;99.90;;;;;;5045274;28;20209;-86
2022/03/29 00:09:35;;;;;;;36.67;22.23;;;8.50;99.90;;;;;;5045354;28;20253;-81
2022/03/29 00:12:02;;;;;;;35.83;22.90;;;8.50;99.90;;;;;;5044149;28;20236;-85
2022/03/29 00:14:29;;;;;;;36.73;23.33;;;8.50;99.90;;;;;;5044694;28;20301;-85
2022/03/29 00:16:56;;;;;;;39.00;22.47;;;8.50;99.90;;;;;;5047009;28;20209;-86
2022/03/29 00:19:22;;;;;;;41.20;23.93;;;8.50;99.90;;;;;;5046522;28;20204;-80
2022/03/29 00:21:49;;;;;;;36.80;22.70;;;8.50;99.90;;;;;;5045036;28;20209;-78
2022/03/29 00:24:16;;;;;;;32.53;20.20;;;8.50;99.90;;;;;;5043583;28;20205;-80
2022/03/29 00:26:44;;;;;;;37.23;22.10;;;8.50;99.90;;;;;;5044305;28;20205;-78
2022/03/29 00:29:11;;;;;;;36.80;22.37;;;8.50;99.90;;;;;;5043061;28;20945;-78
2022/03/29 00:31:38;;;;;;;37.87;23.87;;;8.50;99.90;;;;;;5043229;28;20226;-78
2022/03/29 00:34:04;;;;;;;36.30;23.60;;;8.60;99.90;;;;;;5043334;28;20292;-79
2022/03/29 00:36:32;;;;;;;35.90;22.40;;;8.50;99.90;;;;;;5042338;28;20615;-78
2022/03/29 00:38:58;;;;;;;40.03;23.70;;;8.50;99.90;;;;;;5043224;28;20326;-79
2022/03/29 00:41:25;;;;;;;38.47;23.23;;;8.60;99.90;;;;;;5042637;28;20205;-79
2022/03/29 00:43:53;;;;;;;36.53;23.20;;;8.60;99.90;;;;;;5043695;28;20213;-79
2022/03/29 00:46:20;;;;;;;35.97;21.60;;;8.60;99.90;;;;;;5043669;28;20205;-78
2022/03/29 00:48:47;;;;;;;35.33;20.00;;;8.60;99.90;;;;;;5052375;28;20214;-79
2022/03/29 00:51:14;;;;;;;39.77;22.40;;;8.60;99.90;;;;;;5043723;28;20236;-83
2022/03/29 00:53:41;;;;;;;36.33;23.67;;;8.60;99.90;;;;;;5044237;28;20206;-85
2022/03/29 00:56:09;;;;;;;36.13;21.93;;;8.60;99.90;;;;;;5044460;28;20221;-79
2022/03/29 00:58:36;;;;;;;38.03;22.80;;;8.60;99.90;;;;;;5043282;28;20221;-80
2022/03/29 01:01:06;;;;;;;38.73;23.97;;;8.60;99.90;;;;;;5052339;28;20201;-81
2022/03/29 01:03:32;;;;;;;35.13;23.40;;;8.50;99.90;;;;;;5066987;28;20566;-79
2022/03/29 01:05:59;;;;;;;41.73;25.30;;;8.50;99.90;;;;;;5061446;28;20209;-80
2022/03/29 01:08:27;;;;;;;36.13;22.13;;;8.50;99.90;;;;;;5046221;28;20631;-81
2022/03/29 01:10:54;;;;;;;39.33;23.73;;;8.50;99.90;;;;;;5046658;28;20222;-79
2022/03/29 01:13:22;;;;;;;34.83;21.90;;;8.40;99.90;;;;;;5046680;28;20229;-79
2022/03/29 01:15:50;;;;;;;36.17;21.77;;;8.40;99.90;;;;;;5046733;28;20205;-78
2022/03/29 01:18:18;;;;;;;34.73;21.33;;;8.40;99.90;;;;;;5047331;28;20217;-78
2022/03/29 01:20:49;;;;;;;35.23;21.13;;;8.30;99.90;;;;;;5054364;23;20351;-80
2022/03/29 01:23:18;;;;;;;34.87;21.60;;;8.30;99.90;;;;;;5040844;28;20221;-78
2022/03/29 01:25:45;;;;;;;32.70;21.43;;;8.30;99.90;;;;;;5027315;28;20205;-80
2022/03/29 01:28:15;;;;;;;32.97;21.93;;;8.30;99.90;;;;;;5027825;28;20194;-81
2022/03/29 01:30:42;;;;;;;35.07;21.73;;;8.30;99.90;;;;;;5028185;28;20237;-82
2022/03/29 01:33:11;;;;;;;33.57;21.63;;;8.30;99.90;;;;;;5027391;28;20202;-83
2022/03/29 01:35:40;;;;;;;34.40;21.97;;;8.20;99.90;;;;;;5028396;28;20218;-86
2022/03/29 01:38:07;;;;;;;36.03;22.67;;;8.20;99.90;;;;;;5027505;28;20201;-79
2022/03/29 01:40:36;;;;;;;39.23;23.03;;;8.10;99.90;;;;;;5029053;28;20203;-78
2022/03/29 01:43:03;;;;;;;35.47;23.07;;;8.00;99.90;;;;;;5030564;28;20207;-84
2022/03/29 01:45:32;;;;;;;36.07;22.73;;;8.00;99.90;;;;;;5033780;28;20217;-82
2022/03/29 01:47:59;;;;;;;36.40;22.57;;;8.00;99.90;;;;;;5041695;28;20210;-84
2022/03/29 01:50:27;;;;;;;37.30;23.03;;;8.10;99.90;;;;;;5052474;28;20206;-89
2022/03/29 01:52:54;;;;;;;41.63;23.17;;;8.10;99.90;;;;;;5051148;28;20340;-89
2022/03/29 01:55:22;;;;;;;37.50;23.53;;;8.10;99.90;;;;;;5048259;28;20199;-84
2022/03/29 01:57:53;;;;;;;35.80;22.63;;;8.10;99.90;;;;;;5033184;28;20250;-81
2022/03/29 02:00:33;;;;;;;38.07;24.40;;;8.00;99.90;;;;;;5032248;28;20863;-86
2022/03/29 02:03:02;;;;;;;44.97;25.03;;;8.00;99.90;;;;;;5032672;28;20252;-83
2022/03/29 02:05:30;;;;;;;41.13;25.43;;;8.00;99.90;;;;;;5031820;28;20289;-88
2022/03/29 02:07:58;;;;;;;42.10;24.87;;;8.00;99.90;;;;;;5032036;28;20202;-87
2022/03/29 02:10:25;;;;;;;40.03;22.60;;;8.00;99.90;;;;;;5031305;28;20202;-87
2022/03/29 02:12:53;;;;;;;44.27;24.57;;;8.00;99.90;;;;;;5031623;28;20226;-85
2022/03/29 02:15:20;;;;;;;42.07;23.17;;;8.00;99.90;;;;;;5028442;28;20207;-82
2022/03/29 02:17:48;;;;;;;35.10;22.07;;;8.00;99.90;;;;;;5032483;28;20203;-83
2022/03/29 02:20:16;;;;;;;32.23;20.70;;;8.00;99.90;;;;;;5033140;28;20210;-86
2022/03/29 02:22:43;;;;;;;36.57;22.37;;;7.90;99.90;;;;;;5030660;28;20242;-84
2022/03/29 02:25:11;;;;;;;38.70;22.87;;;7.90;99.90;;;;;;5032557;28;20203;-86
2022/03/29 02:27:39;;;;;;;33.87;20.03;;;7.90;99.90;;;;;;5032743;28;20213;-86
2022/03/29 02:30:09;;;;;;;35.03;20.23;;;7.80;99.90;;;;;;5030695;28;20226;-82
2022/03/29 02:32:39;;;;;;;33.50;21.63;;;7.80;99.90;;;;;;5030217;28;20222;-81
2022/03/29 02:35:07;;;;;;;35.13;21.43;;;7.80;99.90;;;;;;5027454;28;20210;-81
2022/03/29 02:37:34;;;;;;;34.67;20.63;;;7.80;99.90;;;;;;5026433;28;20195;-81
2022/03/29 02:40:01;;;;;;;32.37;20.10;;;7.80;99.90;;;;;;5028304;28;20214;-78
2022/03/29 02:42:27;;;;;;;34.07;20.20;;;7.80;99.90;;;;;;5025958;28;20222;-78
2022/03/29 02:44:54;;;;;;;32.23;19.90;;;7.80;99.90;;;;;;5025935;28;20207;-79
2022/03/29 02:47:23;;;;;;;32.37;20.63;;;7.80;99.90;;;;;;5031118;28;20563;-81
2022/03/29 02:49:49;;;;;;;27.30;17.53;;;7.90;99.90;;;;;;5047305;28;20194;-79
2022/03/29 02:52:16;;;;;;;28.23;18.60;;;7.90;99.90;;;;;;5049425;28;20234;-80
2022/03/29 02:54:43;;;;;;;28.90;19.70;;;7.80;99.90;;;;;;5042020;28;20218;-81
2022/03/29 02:57:10;;;;;;;34.13;19.57;;;7.80;99.90;;;;;;5028485;28;20713;-78
2022/03/29 02:59:36;;;;;;;29.10;18.07;;;7.80;99.90;;;;;;5041253;28;20229;-79
2022/03/29 03:02:04;;;;;;;29.13;18.47;;;7.80;99.90;;;;;;5037026;28;20206;-80
2022/03/29 03:04:32;;;;;;;30.27;18.67;;;7.80;99.90;;;;;;5034463;28;20222;-81
2022/03/29 03:06:59;;;;;;;25.13;18.13;;;7.80;99.90;;;;;;5028982;28;20214;-78
2022/03/29 03:09:26;;;;;;;27.63;18.50;;;7.80;99.90;;;;;;5028142;28;20298;-81
2022/03/29 03:11:53;;;;;;;27.87;18.53;;;7.70;99.90;;;;;;5027154;28;20236;-80
2022/03/29 03:14:19;;;;;;;26.00;17.57;;;7.80;99.90;;;;;;5025949;28;20195;-79
2022/03/29 03:16:46;;;;;;;29.70;19.33;;;7.70;99.90;;;;;;5027112;28;20207;-84
2022/03/29 03:19:13;;;;;;;30.23;19.43;;;7.70;99.90;;;;;;5026808;28;20205;-84
2022/03/29 03:21:42;;;;;;;30.53;20.03;;;7.70;99.90;;;;;;5025912;28;20235;-81
2022/03/29 03:24:09;;;;;;;30.73;20.03;;;7.70;99.90;;;;;;5026597;28;20658;-80
2022/03/29 03:26:35;;;;;;;30.53;20.40;;;7.70;99.90;;;;;;5025679;28;20214;-85
2022/03/29 03:29:02;;;;;;;26.23;17.87;;;7.70;99.90;;;;;;5026440;28;20206;-83
2022/03/29 03:31:29;;;;;;;32.77;19.97;;;7.70;99.90;;;;;;5026770;28;20210;-81
2022/03/29 03:33:56;;;;;;;32.10;20.10;;;7.70;99.90;;;;;;5026622;28;20585;-85
2022/03/29 03:36:23;;;;;;;27.40;18.40;;;7.70;99.90;;;;;;5025752;28;20549;-82
2022/03/29 03:38:51;;;;;;;28.63;19.10;;;7.70;99.90;;;;;;5034185;28;20522;-86
2022/03/29 03:41:18;;;;;;;27.60;18.20;;;7.80;99.90;;;;;;5046841;28;20205;-85
2022/03/29 03:43:45;;;;;;;30.13;19.57;;;7.70;99.90;;;;;;5038223;28;20206;-82
2022/03/29 03:46:13;;;;;;;28.80;19.90;;;7.70;99.90;;;;;;5028176;28;20212;-82
2022/03/29 03:48:39;;;;;;;29.80;20.80;;;7.70;99.90;;;;;;5027386;28;20272;-82
2022/03/29 03:51:06;;;;;;;27.23;18.23;;;7.70;99.90;;;;;;5027147;28;20213;-81
2022/03/29 03:53:33;;;;;;;26.73;18.63;;;7.70;99.90;;;;;;5026658;28;20233;-88
2022/03/29 03:56:01;;;;;;;31.23;20.17;;;7.70;99.90;;;;;;5031833;28;20213;-88
2022/03/29 03:58:28;;;;;;;27.97;19.23;;;7.70;99.90;;;;;;5045997;28;20239;-86
2022/03/29 04:00:55;;;;;;;32.77;19.83;;;7.70;99.90;;;;;;5045420;28;20201;-83
2022/03/29 04:03:22;;;;;;;29.90;19.20;;;7.70;99.90;;;;;;5044033;28;20661;-83
2022/03/29 04:05:48;;;;;;;36.23;19.63;;;7.80;99.90;;;;;;5025018;28;20214;-79
2022/03/29 04:08:15;;;;;;;29.43;20.27;;;7.80;99.90;;;;;;5024857;28;20635;-80
2022/03/29 04:10:42;;;;;;;30.03;19.20;;;7.70;99.90;;;;;;5023997;28;20195;-77
2022/03/29 04:13:10;;;;;;;27.40;19.00;;;7.80;99.90;;;;;;5024259;28;20222;-78
2022/03/29 04:15:37;;;;;;;29.03;18.90;;;7.80;99.90;;;;;;5023472;28;20218;-80
2022/03/29 04:18:04;;;;;;;28.77;18.70;;;7.70;99.90;;;;;;5024849;28;20206;-79
2022/03/29 04:20:31;;;;;;;27.40;19.77;;;7.70;99.90;;;;;;5024726;28;20214;-80
2022/03/29 04:22:57;;;;;;;25.67;18.90;;;7.70;99.90;;;;;;5024412;28;20230;-80
2022/03/29 04:25:24;;;;;;;31.30;21.67;;;7.60;99.90;;;;;;5025221;28;20229;-88
2022/03/29 04:27:51;;;;;;;27.30;18.67;;;7.60;99.90;;;;;;5026081;28;20207;-82
2022/03/29 04:30:19;;;;;;;27.60;18.63;;;7.70;99.90;;;;;;5025834;28;20202;-79
2022/03/29 04:32:46;;;;;;;28.20;18.90;;;7.70;99.90;;;;;;5024057;28;20214;-79
2022/03/29 04:35:13;;;;;;;27.33;20.17;;;7.70;99.90;;;;;;5029977;28;20210;-83
2022/03/29 04:37:40;;;;;;;27.60;19.10;;;7.70;99.90;;;;;;5031777;28;20244;-89
2022/03/29 04:40:09;;;;;;;26.33;18.00;;;7.70;99.90;;;;;;5031681;28;20208;-86
2022/03/29 04:42:42;;;;;;;27.63;18.83;;;7.70;99.90;;;;;;5030799;28;20535;-84
2022/03/29 04:45:10;;;;;;;28.07;19.07;;;7.70;99.90;;;;;;5030546;28;20335;-84
2022/03/29 04:47:38;;;;;;;28.10;19.20;;;7.70;99.90;;;;;;5037242;28;20247;-87
2022/03/29 04:50:06;;;;;;;25.10;18.83;;;7.70;99.90;;;;;;5047034;28;20844;-79
2022/03/29 04:52:32;;;;;;;26.03;18.30;;;7.70;99.90;;;;;;5031257;28;20601;-84
2022/03/29 04:55:00;;;;;;;28.30;19.17;;;7.70;99.90;;;;;;5031197;28;20203;-86
2022/03/29 04:57:27;;;;;;;30.77;19.03;;;7.70;99.90;;;;;;5031079;28;20805;-84
2022/03/29 04:59:54;;;;;;;26.40;18.83;;;7.60;99.90;;;;;;5031341;28;20342;-85
2022/03/29 05:02:20;;;;;;;26.73;18.73;;;7.60;99.90;;;;;;5030729;28;20203;-83
2022/03/29 05:04:49;;;;;;;24.87;18.73;;;7.70;99.90;;;;;;5030133;28;20207;-86
2022/03/29 05:07:16;;;;;;;30.27;20.67;;;7.70;99.90;;;;;;5029969;28;20238;-83
2022/03/29 05:09:43;;;;;;;28.73;18.70;;;7.70;99.90;;;;;;5041924;28;20210;-85
2022/03/29 05:12:10;;;;;;;29.50;19.07;;;7.60;99.90;;;;;;5049947;28;20225;-83
2022/03/29 05:14:36;;;;;;;29.97;18.47;;;7.60;99.90;;;;;;5050000;28;20213;-84
2022/03/29 05:17:04;;;;;;;24.80;17.97;;;7.50;99.90;;;;;;5038466;28;20202;-87
2022/03/29 05:19:30;;;;;;;24.17;17.57;;;7.60;99.90;;;;;;5029839;28;20646;-81
2022/03/29 05:21:59;;;;;;;24.17;19.73;;;7.60;99.90;;;;;;5030242;28;20258;-88
2022/03/29 05:24:26;;;;;;;26.83;19.43;;;7.60;99.90;;;;;;5030320;28;20199;-82
2022/03/29 05:26:52;;;;;;;30.70;19.90;;;7.60;99.90;;;;;;5030220;28;20203;-82
2022/03/29 05:29:19;;;;;;;29.73;20.20;;;7.60;99.90;;;;;;5037796;28;20210;-85
2022/03/29 05:31:46;;;;;;;27.07;18.87;;;7.60;99.90;;;;;;5050357;28;20208;-85
2022/03/29 05:34:13;;;;;;;29.67;19.53;;;7.60;99.90;;;;;;5033834;28;20226;-80
2022/03/29 05:36:44;;;;;;;26.40;18.83;;;7.60;99.90;;;;;;5027164;28;20280;-81
2022/03/29 05:39:13;;;;;;;27.80;18.63;;;7.60;99.90;;;;;;5026042;28;20214;-83
2022/03/29 05:41:40;;;;;;;28.33;19.07;;;7.60;99.90;;;;;;5026853;28;20218;-79
2022/03/29 05:44:07;;;;;;;28.27;18.33;;;7.50;99.90;;;;;;5027102;28;20226;-77
2022/03/29 05:49:20;;;;;;;27.83;20.43;;;7.60;99.90;;;;;;5010807;28;20821;-80
2022/03/29 05:51:49;;;;;;;29.07;19.47;;;7.50;99.90;;;;;;5027393;28;20283;-81
2022/03/29 05:54:17;;;;;;;29.33;19.57;;;7.50;99.90;;;;;;5026447;28;20237;-78
2022/03/29 05:56:44;;;;;;;27.03;19.10;;;7.50;99.90;;;;;;5029698;28;20234;-81
2022/03/29 05:59:11;;;;;;;32.07;19.20;;;7.50;99.90;;;;;;5029662;28;20222;-81
2022/03/29 06:01:39;;;;;;;28.03;18.93;;;7.50;99.90;;;;;;5028404;28;20218;-80
2022/03/29 06:04:07;;;;;;;28.73;20.90;;;7.50;99.90;;;;;;5028841;28;20222;-82
2022/03/29 06:06:34;;;;;;;27.23;20.03;;;7.50;99.90;;;;;;5028293;28;20288;-89
2022/03/29 06:09:00;;;;;;;27.53;19.17;;;7.50;99.90;;;;;;5028054;28;20222;-87
2022/03/29 06:11:29;;;;;;;29.70;20.23;;;7.50;99.90;;;;;;5028840;28;20205;-85
2022/03/29 06:13:55;;;;;;;28.10;18.57;;;7.50;99.90;;;;;;5027457;28;20237;-82
2022/03/29 06:16:23;;;;;;;31.87;20.67;;;7.40;99.90;;;;;;5028842;28;20217;-83
2022/03/29 06:18:49;;;;;;;28.47;19.43;;;7.50;99.90;;;;;;5028303;28;20210;-85
2022/03/29 06:21:16;;;;;;;26.90;19.40;;;7.50;99.90;;;;;;5027519;28;20234;-83
2022/03/29 06:23:44;;;;;;;27.37;20.23;;;7.50;99.90;;;;;;5027545;28;20210;-80
2022/03/29 06:26:11;;;;;;;28.50;19.53;;;7.50;99.90;;;;;;5046410;28;20237;-80
2022/03/29 06:28:39;;;;;;;29.00;19.67;;;7.50;99.90;;;;;;5046746;28;20231;-82
2022/03/29 06:31:08;;;;;;;27.67;20.10;;;7.40;99.90;;;;;;5038799;28;20674;-87
2022/03/29 06:33:35;;;;;;;31.33;20.57;;;7.50;99.90;;;;;;5025834;28;20313;-79
2022/03/29 06:36:02;;;;;;;24.93;19.17;;;7.40;99.90;;;;;;5025313;28;20619;-79
2022/03/29 06:38:31;;;;;;;32.30;21.87;;;7.40;99.90;;;;;;5025171;28;20510;-86
2022/03/29 06:40:59;;;;;;;30.67;20.90;;;7.40;99.90;;;;;;5028211;28;20213;-78
2022/03/29 06:43:26;;;;;;;29.37;19.80;;;7.40;99.90;;;;;;5028230;28;20234;-80
2022/03/29 06:45:55;;;;;;;28.40;20.77;;;7.40;99.90;;;;;;5028454;28;20207;-81
2022/03/29 06:48:23;;;;;;;27.67;21.13;;;7.50;99.90;;;;;;5041929;28;20292;-79
2022/03/29 06:50:50;;;;;;;30.67;22.90;;;7.50;99.90;;;;;;5048625;28;20197;-81
2022/03/29 06:53:17;;;;;;;28.03;20.57;;;7.50;99.90;;;;;;5030392;28;20232;-83
2022/03/29 06:55:43;;;;;;;32.63;22.10;;;7.50;99.90;;;;;;5028361;28;20298;-87
2022/03/29 06:58:10;;;;;;;30.57;21.57;;;7.40;99.90;;;;;;5028169;28;20225;-85
2022/03/29 07:00:37;;;;;;;33.13;22.13;;;7.40;99.90;;;;;;5026493;28;20209;-82
2022/03/29 07:03:05;;;;;;;29.90;22.10;;;7.40;99.90;;;;;;5026373;28;20207;-82
2022/03/29 07:05:36;;;;;;;31.00;21.97;;;7.40;99.90;;;;;;5026291;28;20199;-81
2022/03/29 07:08:03;;;;;;;31.90;23.10;;;7.50;99.90;;;;;;5026093;28;20268;-79
2022/03/29 07:13:14;;;;;;;32.70;22.73;;;7.50;99.90;;;;;;5025305;28;20268;-82
2022/03/29 07:15:40;;;;;;;30.00;22.90;;;7.60;99.90;;;;;;5026309;28;20310;-81
2022/03/29 07:18:09;;;;;;;32.23;23.00;;;7.60;99.90;;;;;;5025099;28;20214;-80
2022/03/29 07:20:36;;;;;;;30.07;22.77;;;7.60;99.90;;;;;;5023784;28;20214;-82
2022/03/29 07:23:40;;;;;;;32.37;21.63;;;7.60;99.90;;;;;;4956349;28;20524;-80
2022/03/29 07:26:08;;;;;;;33.50;23.67;;;7.70;99.90;;;;;;5024267;28;20202;-86
2022/03/29 07:28:35;;;;;;;33.00;22.40;;;7.80;99.90;;;;;;5024638;28;20205;-84
2022/03/29 07:31:05;;;;;;;31.00;23.10;;;7.80;99.90;;;;;;5025659;28;20973;-84
2022/03/29 07:33:34;;;;;;;30.47;22.70;;;7.80;99.90;;;;;;5025338;28;20627;-80
2022/03/29 07:36:03;;;;;;;35.13;23.57;;;7.90;99.90;;;;;;5027818;28;20216;-87
2022/03/29 07:38:30;;;;;;;29.30;21.47;;;8.10;99.90;;;;;;5026668;28;20276;-83
2022/03/29 07:41:02;;;;;;;30.17;20.43;;;8.10;99.90;;;;;;5025340;28;20506;-84
2022/03/29 07:43:31;;;;;;;28.70;20.40;;;8.30;99.90;;;;;;5029630;28;20211;-85
2022/03/29 07:45:57;;;;;;;26.97;21.70;;;8.30;99.90;;;;;;5026111;28;20619;-84
2022/03/29 07:48:24;;;;;;;28.93;20.87;;;8.30;99.90;;;;;;5036257;28;20650;-84
2022/03/29 07:50:53;;;;;;;28.50;21.23;;;8.40;99.90;;;;;;5027560;28;20213;-85
2022/03/29 07:53:21;;;;;;;26.97;20.13;;;8.50;99.90;;;;;;5027234;28;20222;-85
2022/03/29 07:55:48;;;;;;;28.57;20.10;;;8.40;99.90;;;;;;5028332;28;20214;-83
2022/03/29 07:58:16;;;;;;;26.13;19.20;;;8.40;99.90;;;;;;5028121;28;20237;-80
2022/03/29 08:00:43;;;;;;;24.57;18.77;;;8.40;99.90;;;;;;5025111;28;20693;-79
2022/03/29 08:03:12;;;;;;;29.87;19.93;;;8.50;99.90;;;;;;5024573;28;20199;-78
2022/03/29 08:05:41;;;;;;;31.87;19.43;;;8.50;99.90;;;;;;5024517;28;20698;-76
2022/03/29 08:08:13;;;;;;;26.73;19.00;;;8.60;99.90;;;;;;5023910;28;20666;-82
2022/03/29 08:10:40;;;;;;;26.57;18.83;;;8.60;99.90;;;;;;5023789;28;20202;-80
2022/03/29 08:13:08;;;;;;;23.53;17.93;;;8.60;99.90;;;;;;5044472;28;20225;-78
2022/03/29 08:15:35;;;;;;;26.47;18.70;;;8.70;99.90;;;;;;5030211;28;20288;-79
2022/03/29 08:18:03;;;;;;;25.40;18.23;;;8.70;99.90;;;;;;5025402;28;20206;-78
2022/03/29 08:20:31;;;;;;;24.70;17.50;;;8.70;99.90;;;;;;5023945;28;20206;-78
2022/03/29 08:23:00;;;;;;;28.30;18.63;;;8.80;99.90;;;;;;5023226;28;20321;-78
2022/03/29 08:25:31;;;;;;;29.53;19.17;;;8.80;99.90;;;;;;5025105;28;20293;-79
2022/03/29 08:27:59;;;;;;;22.90;17.10;;;8.90;99.90;;;;;;5025345;28;20195;-78
2022/03/29 08:30:27;;;;;;;28.77;18.27;;;8.90;99.90;;;;;;5023784;28;20285;-78
2022/03/29 08:32:55;;;;;;;23.83;17.70;;;8.90;99.90;;;;;;5023621;28;20762;-80
2022/03/29 08:35:22;;;;;;;25.73;17.70;;;9.00;99.90;;;;;;5022956;28;20242;-79
2022/03/29 08:37:49;;;;;;;24.37;17.30;;;9.20;99.90;;;;;;5023472;28;20211;-81
2022/03/29 08:40:21;;;;;;;24.13;17.87;;;9.30;99.90;;;;;;5030077;28;20290;-80
2022/03/29 08:42:54;;;;;;;23.27;17.83;;;9.40;99.90;;;;;;5033481;28;20209;-78
2022/03/29 08:45:26;;;;;;;25.53;16.27;;;9.60;99.90;;;;;;5035647;28;20211;-77
2022/03/29 08:47:55;;;;;;;23.63;16.47;;;9.60;99.90;;;;;;5029136;28;20206;-78
2022/03/29 08:50:23;;;;;;;24.43;17.23;;;9.50;99.90;;;;;;5037767;28;20220;-79
2022/03/29 08:52:52;;;;;;;23.70;17.13;;;9.50;99.90;;;;;;5029399;28;20275;-76
2022/03/29 08:55:19;;;;;;;22.17;17.53;;;9.50;99.90;;;;;;5031968;28;20237;-79
2022/03/29 08:57:52;;;;;;;23.77;17.30;;;9.60;99.90;;;;;;5032394;28;20521;-79
2022/03/29 09:00:20;;;;;;;25.13;18.03;;;9.70;99.90;;;;;;5036068;28;20229;-78
2022/03/29 09:02:47;;;;;;;27.90;18.50;;;9.70;99.90;;;;;;5033967;28;20281;-76
2022/03/29 09:05:15;;;;;;;24.93;17.87;;;9.90;99.90;;;;;;5033676;28;20214;-77
2022/03/29 09:07:50;;;;;;;28.00;17.83;;;10.10;99.90;;;;;;5034451;28;20210;-78
2022/03/29 09:10:17;;;;;;;29.03;17.97;;;10.30;99.90;;;;;;5036013;28;20244;-78
2022/03/29 09:12:45;;;;;;;23.93;16.77;;;10.50;99.90;;;;;;5035612;28;20206;-78
2022/03/29 09:15:13;;;;;;;24.53;17.77;;;10.20;99.90;;;;;;5035532;28;20779;-80
2022/03/29 09:17:42;;;;;;;22.43;16.30;;;9.90;99.90;;;;;;5034084;28;20661;-79
2022/03/29 09:20:11;;;;;;;28.73;17.87;;;10.00;99.90;;;;;;5034213;28;21023;-80
2022/03/29 09:22:42;;;;;;;30.23;17.57;;;10.00;99.90;;;;;;5037758;28;20354;-78
2022/03/29 09:25:11;;;;;;;25.47;17.77;;;10.00;99.90;;;;;;5036819;28;20606;-79
2022/03/29 09:27:52;;;;;;;28.70;17.93;;;10.20;99.90;;;;;;5035847;28;20618;-78
2022/03/29 09:30:21;;;;;;;26.80;18.03;;;10.30;99.90;;;;;;5024045;28;20497;-80
2022/03/29 09:32:56;;;;;;;23.17;16.70;;;10.40;99.90;;;;;;5043725;28;20230;-80
2022/03/29 09:35:24;;;;;;;22.93;16.90;;;10.60;99.90;;;;;;5029716;28;20221;-78
2022/03/29 09:37:51;;;;;;;27.20;18.93;;;10.60;99.90;;;;;;5024979;28;20444;-78
2022/03/29 09:40:18;;;;;;;31.27;19.17;;;10.50;99.90;;;;;;5026486;28;20206;-78
2022/03/29 09:43:00;;;;;;;26.57;18.57;;;10.60;99.90;;;;;;5025783;28;20217;-78
2022/03/29 09:45:47;;;;;;;33.13;19.43;;;10.50;99.90;;;;;;5026985;28;20203;-80
2022/03/29 09:48:29;;;;;;;30.03;18.90;;;10.70;99.90;;;;;;5037700;28;20217;-80
2022/03/29 09:50:58;;;;;;;25.50;18.03;;;10.50;99.90;;;;;;5047567;28;20202;-79
2022/03/29 09:53:38;;;;;;;24.40;18.07;;;10.60;99.90;;;;;;5029241;28;20210;-80
2022/03/29 09:56:07;;;;;;;27.03;18.23;;;10.70;99.90;;;;;;5026818;28;20206;-79
2022/03/29 09:58:34;;;;;;;27.17;18.27;;;10.70;99.90;;;;;;5025770;28;20239;-81
2022/03/29 10:01:03;;;;;;;26.70;19.07;;;10.90;99.90;;;;;;5027222;28;20206;-78
2022/03/29 10:03:33;;;;;;;25.30;18.10;;;11.20;99.90;;;;;;5025824;28;20218;-80
2022/03/29 10:06:03;;;;;;;26.80;18.37;;;11.40;99.90;;;;;;5024963;28;20210;-81
2022/03/29 10:11:18;;;;;;;29.47;19.07;;;11.60;99.90;;;;;;5025496;28;20193;-76
2022/03/29 10:13:46;;;;;;;24.27;19.07;;;12.00;99.90;;;;;;5024501;28;20369;-76
2022/03/29 10:16:16;;;;;;;25.60;17.37;;;12.40;99.90;;;;;;5025388;28;20238;-76
2022/03/29 10:18:44;;;;;;;24.13;17.43;;;12.40;99.90;;;;;;5026884;28;20275;-78
2022/03/29 10:21:13;;;;;;;25.23;18.10;;;12.20;99.90;;;;;;5026120;28;20245;-78
2022/03/29 10:23:40;;;;;;;25.60;18.57;;;12.10;99.90;;;;;;5033883;28;20214;-79
2022/03/29 10:26:08;;;;;;;25.67;17.63;;;12.10;99.90;;;;;;5047036;28;20202;-82
2022/03/29 10:28:34;;;;;;;25.57;18.70;;;11.80;99.90;;;;;;5042835;28;20211;-80
2022/03/29 10:31:02;;;;;;;23.20;18.47;;;11.70;99.90;;;;;;5029496;28;20199;-82
2022/03/29 10:33:32;;;;;;;26.23;20.10;;;11.70;99.90;;;;;;5028666;28;20218;-80
2022/03/29 10:36:09;;;;;;;27.50;20.43;;;11.90;99.90;;;;;;5025989;28;20856;-83
2022/03/29 10:38:57;;;;;;;24.93;18.00;;;11.70;99.90;;;;;;5027485;28;20198;-84
2022/03/29 10:41:50;;;;;;;29.13;19.23;;;11.80;99.90;;;;;;5023687;28;20210;-82
2022/03/29 10:44:17;;;;;;;25.23;19.47;;;12.00;99.90;;;;;;5025449;28;20293;-80
2022/03/29 10:46:46;;;;;;;26.43;19.00;;;12.40;99.90;;;;;;5026510;28;20203;-78
2022/03/29 10:49:20;;;;;;;24.60;18.37;;;12.70;99.90;;;;;;5038021;28;20691;-79
2022/03/29 10:51:47;;;;;;;27.30;18.87;;;13.00;99.90;;;;;;5025381;28;20208;-80
2022/03/29 10:54:32;;;;;;;23.93;18.03;;;13.20;99.90;;;;;;5024138;28;20226;-81
2022/03/29 10:57:01;;;;;;;26.27;18.67;;;13.50;99.90;;;;;;5025420;28;20528;-80
2022/03/29 10:59:29;;;;;;;24.83;18.67;;;13.40;99.90;;;;;;5024591;28;20213;-76
2022/03/29 11:02:14;;;;;;;27.40;19.53;;;12.90;99.90;;;;;;5024264;28;20276;-80
2022/03/29 11:05:04;;;;;;;28.27;19.27;;;13.10;99.90;;;;;;5024959;28;20618;-79
2022/03/29 11:07:31;;;;;;;23.60;18.00;;;13.30;99.90;;;;;;5024579;28;20206;-78
2022/03/29 11:10:10;;;;;;;25.43;17.40;;;13.60;99.90;;;;;;5029401;28;20209;-83
2022/03/29 11:12:57;;;;;;;24.63;18.67;;;13.70;99.90;;;;;;5032883;28;20214;-79
2022/03/29 11:15:49;;;;;;;25.00;19.67;;;13.50;99.90;;;;;;5043083;28;20224;-80
2022/03/29 11:18:42;;;;;;;27.67;19.43;;;13.70;99.90;;;;;;5042341;28;20209;-80
2022/03/29 11:21:11;;;;;;;24.30;18.63;;;13.80;99.90;;;;;;5025168;28;20242;-80
2022/03/29 11:23:40;;;;;;;24.47;19.00;;;13.70;99.90;;;;;;5024459;28;20203;-80
2022/03/29 11:26:12;;;;;;;25.50;19.30;;;13.90;99.90;;;;;;5024072;28;20517;-80
2022/03/29 11:28:47;;;;;;;26.03;18.13;;;14.20;99.90;;;;;;5036518;28;20221;-82
2022/03/29 11:31:14;;;;;;;26.87;18.50;;;14.10;99.90;;;;;;5043945;28;20202;-79
2022/03/29 11:33:43;;;;;;;24.57;17.90;;;14.00;99.90;;;;;;5031115;28;20518;-78
2022/03/29 11:36:12;;;;;;;29.90;18.27;;;13.80;99.90;;;;;;5024612;28;20218;-80
2022/03/29 11:38:39;;;;;;;23.20;18.60;;;14.10;99.90;;;;;;5023395;28;20215;-80
2022/03/29 11:41:06;;;;;;;27.10;19.57;;;13.70;99.90;;;;;;5023999;28;20629;-79
2022/03/29 11:43:35;;;;;;;23.40;17.57;;;13.60;99.90;;;;;;5023929;28;20206;-79
2022/03/29 11:46:05;;;;;;;22.10;18.27;;;13.70;99.90;;;;;;5023865;28;20234;-77
2022/03/29 11:48:35;;;;;;;24.40;17.73;;;13.60;99.90;;;;;;5037367;28;20236;-79
2022/03/29 11:51:02;;;;;;;25.53;18.50;;;13.60;99.90;;;;;;5023869;28;20202;-79
2022/03/29 11:53:36;;;;;;;25.50;18.07;;;13.60;99.90;;;;;;5022710;28;20198;-77
2022/03/29 11:56:04;;;;;;;22.90;18.10;;;13.80;99.90;;;;;;5022579;28;20238;-79
2022/03/29 11:58:33;;;;;;;23.93;18.57;;;13.90;99.90;;;;;;5022604;28;20249;-77
2022/03/29 12:01:02;;;;;;;24.80;19.03;;;13.90;99.90;;;;;;5023385;28;20218;-78
2022/03/29 12:03:33;;;;;;;24.17;18.77;;;13.90;99.90;;;;;;5023463;28;20210;-79
2022/03/29 12:06:04;;;;;;;23.93;17.23;;;14.10;99.90;;;;;;5022925;28;20209;-79
2022/03/29 12:08:52;;;;;;;24.37;19.07;;;14.20;99.90;;;;;;5022578;28;20215;-78
2022/03/29 12:11:20;;;;;;;27.40;19.07;;;14.10;99.90;;;;;;5022950;28;20202;-78
2022/03/29 12:13:49;;;;;;;26.67;19.60;;;14.00;99.90;;;;;;5023132;28;20724;-79
2022/03/29 12:16:21;;;;;;;28.63;19.43;;;13.90;99.90;;;;;;5023102;28;20552;-79
2022/03/29 12:18:49;;;;;;;25.47;18.67;;;13.70;99.90;;;;;;5023433;28;20202;-77
2022/03/29 12:21:18;;;;;;;27.83;19.43;;;13.60;99.90;;;;;;5022944;28;20238;-78
2022/03/29 12:23:47;;;;;;;22.93;18.77;;;13.70;99.90;;;;;;5023412;28;20206;-79
2022/03/29 12:26:16;;;;;;;25.13;19.03;;;13.70;99.90;;;;;;5022825;28;20221;-77
2022/03/29 12:28:45;;;;;;;27.73;19.47;;;13.60;99.90;;;;;;5023197;28;20209;-79
2022/03/29 12:31:13;;;;;;;29.47;20.20;;;13.70;99.90;;;;;;5023303;28;20202;-77
2022/03/29 12:33:41;;;;;;;24.50;18.43;;;13.60;99.90;;;;;;5023174;28;20210;-76
2022/03/29 12:36:10;;;;;;;26.27;18.67;;;13.60;99.90;;;;;;5023251;28;20321;-77
2022/03/29 12:38:41;;;;;;;27.17;17.90;;;13.80;99.90;;;;;;5042869;28;20275;-77
2022/03/29 12:41:11;;;;;;;25.73;17.70;;;14.10;99.90;;;;;;5040949;28;20293;-77
2022/03/29 12:43:38;;;;;;;28.27;19.43;;;14.10;99.90;;;;;;5023533;28;20273;-77
2022/03/29 12:46:09;;;;;;;24.43;17.83;;;14.10;99.90;;;;;;5023551;28;20293;-78
2022/03/29 12:48:37;;;;;;;23.87;17.33;;;14.20;99.90;;;;;;5037375;28;20206;-78
2022/03/29 12:51:06;;;;;;;23.27;18.10;;;14.30;99.90;;;;;;5034017;28;20207;-78